sensor_id;sensor_type;location;lat;lon;timestamp;P1;durP1;ratioP1;P2;durP2;ratioP2
77507;SDS011;66618;42.666;23.360;2023-05-07T00:01:02;12.65;;;7.60;;
77507;SDS011;66618;42.666;23.360;2023-05-07T00:03:27;12.15;;;7.72;;
77507;SDS011;66618;42.666;23.360;2023-05-07T00:05:52;12.07;;;8.32;;
77507;SDS011;66618;42.666;23.360;2023-05-07T00:08:18;12.88;;;8.38;;
77507;SDS011;66618;42.666;23.360;2023-05-07T00:10:44;13.45;;;8.50;;
77507;SDS011;66618;42.666;23.360;2023-05-07T00:13:09;13.18;;;7.85;;
77507;SDS011;66618;42.666;23.360;2023-05-07T00:15:35;14.85;;;8.23;;
77507;SDS011;66618;42.666;23.360;2023-05-07T00:18:00;11.05;;;7.95;;
77507;SDS011;66618;42.666;23.360;2023-05-07T00:20:26;14.00;;;8.52;;
77507;SDS011;66618;42.666;23.360;2023-05-07T00:22:51;13.68;;;9.05;;
77507;SDS011;66618;42.666;23.360;2023-05-07T00:25:17;14.23;;;8.90;;
77507;SDS011;66618;42.666;23.360;2023-05-07T00:27:44;14.52;;;9.07;;
77507;SDS011;66618;42.666;23.360;2023-05-07T00:30:10;15.95;;;9.70;;
77507;SDS011;66618;42.666;23.360;2023-05-07T00:32:36;22.15;;;9.23;;
77507;SDS011;66618;42.666;23.360;2023-05-07T00:35:01;16.17;;;9.23;;
77507;SDS011;66618;42.666;23.360;2023-05-07T00:37:27;16.58;;;9.65;;
77507;SDS011;66618;42.666;23.360;2023-05-07T00:39:53;16.05;;;8.95;;
77507;SDS011;66618;42.666;23.360;2023-05-07T00:42:18;17.13;;;9.82;;
77507;SDS011;66618;42.666;23.360;2023-05-07T00:44:43;15.32;;;9.38;;
77507;SDS011;66618;42.666;23.360;2023-05-07T00:47:09;13.77;;;9.07;;
77507;SDS011;66618;42.666;23.360;2023-05-07T00:49:41;16.23;;;9.18;;
77507;SDS011;66618;42.666;23.360;2023-05-07T00:52:07;13.90;;;9.30;;
77507;SDS011;66618;42.666;23.360;2023-05-07T00:54:34;16.38;;;9.65;;
77507;SDS011;66618;42.666;23.360;2023-05-07T00:57:01;17.33;;;9.70;;
77507;SDS011;66618;42.666;23.360;2023-05-07T00:59:27;14.30;;;9.32;;
77507;SDS011;66618;42.666;23.360;2023-05-07T01:01:52;16.42;;;9.23;;
77507;SDS011;66618;42.666;23.360;2023-05-07T01:04:18;13.75;;;8.65;;
77507;SDS011;66618;42.666;23.360;2023-05-07T01:06:44;15.68;;;9.20;;
77507;SDS011;66618;42.666;23.360;2023-05-07T01:09:10;14.82;;;9.77;;
77507;SDS011;66618;42.666;23.360;2023-05-07T01:11:35;11.43;;;7.05;;
77507;SDS011;66618;42.666;23.360;2023-05-07T01:14:01;9.90;;;6.22;;
77507;SDS011;66618;42.666;23.360;2023-05-07T01:16:26;11.25;;;6.88;;
77507;SDS011;66618;42.666;23.360;2023-05-07T01:18:52;13.13;;;7.18;;
77507;SDS011;66618;42.666;23.360;2023-05-07T01:21:18;7.63;;;5.60;;
77507;SDS011;66618;42.666;23.360;2023-05-07T01:23:44;9.20;;;5.90;;
77507;SDS011;66618;42.666;23.360;2023-05-07T01:26:10;8.32;;;5.40;;
77507;SDS011;66618;42.666;23.360;2023-05-07T01:28:35;8.50;;;5.53;;
77507;SDS011;66618;42.666;23.360;2023-05-07T01:31:01;8.68;;;6.05;;
77507;SDS011;66618;42.666;23.360;2023-05-07T01:33:29;9.38;;;5.95;;
77507;SDS011;66618;42.666;23.360;2023-05-07T01:35:56;9.88;;;5.30;;
77507;SDS011;66618;42.666;23.360;2023-05-07T01:38:23;8.93;;;5.72;;
77507;SDS011;66618;42.666;23.360;2023-05-07T01:40:49;8.25;;;5.25;;
77507;SDS011;66618;42.666;23.360;2023-05-07T01:43:14;11.98;;;5.85;;
77507;SDS011;66618;42.666;23.360;2023-05-07T01:45:40;11.95;;;6.68;;
77507;SDS011;66618;42.666;23.360;2023-05-07T01:48:06;8.80;;;5.80;;
77507;SDS011;66618;42.666;23.360;2023-05-07T01:50:32;10.57;;;6.40;;
77507;SDS011;66618;42.666;23.360;2023-05-07T01:52:58;8.88;;;6.25;;
77507;SDS011;66618;42.666;23.360;2023-05-07T01:55:24;7.43;;;5.65;;
77507;SDS011;66618;42.666;23.360;2023-05-07T01:57:50;9.27;;;6.70;;
77507;SDS011;66618;42.666;23.360;2023-05-07T02:00:15;8.23;;;6.38;;
77507;SDS011;66618;42.666;23.360;2023-05-07T02:02:41;8.30;;;5.15;;
77507;SDS011;66618;42.666;23.360;2023-05-07T02:05:06;9.07;;;5.97;;
77507;SDS011;66618;42.666;23.360;2023-05-07T02:07:32;9.88;;;7.18;;
77507;SDS011;66618;42.666;23.360;2023-05-07T02:09:57;8.20;;;5.82;;
77507;SDS011;66618;42.666;23.360;2023-05-07T02:12:23;8.98;;;6.30;;
77507;SDS011;66618;42.666;23.360;2023-05-07T02:14:48;6.40;;;4.75;;
77507;SDS011;66618;42.666;23.360;2023-05-07T02:17:14;11.57;;;6.80;;
77507;SDS011;66618;42.666;23.360;2023-05-07T02:19:39;9.13;;;6.03;;
77507;SDS011;66618;42.666;23.360;2023-05-07T02:22:05;8.57;;;6.43;;
77507;SDS011;66618;42.666;23.360;2023-05-07T02:24:30;11.23;;;6.75;;
77507;SDS011;66618;42.666;23.360;2023-05-07T02:26:55;10.77;;;6.15;;
77507;SDS011;66618;42.666;23.360;2023-05-07T02:29:21;12.35;;;7.97;;
77507;SDS011;66618;42.666;23.360;2023-05-07T02:31:46;12.57;;;8.45;;
77507;SDS011;66618;42.666;23.360;2023-05-07T02:34:15;10.63;;;7.55;;
77507;SDS011;66618;42.666;23.360;2023-05-07T02:36:41;12.77;;;7.47;;
77507;SDS011;66618;42.666;23.360;2023-05-07T02:39:06;9.63;;;7.25;;
77507;SDS011;66618;42.666;23.360;2023-05-07T02:41:32;9.57;;;6.95;;
77507;SDS011;66618;42.666;23.360;2023-05-07T02:43:57;11.38;;;8.27;;
77507;SDS011;66618;42.666;23.360;2023-05-07T02:46:23;10.00;;;7.47;;
77507;SDS011;66618;42.666;23.360;2023-05-07T02:48:48;11.07;;;7.45;;
77507;SDS011;66618;42.666;23.360;2023-05-07T02:51:13;11.70;;;7.78;;
77507;SDS011;66618;42.666;23.360;2023-05-07T02:53:39;10.13;;;7.32;;
77507;SDS011;66618;42.666;23.360;2023-05-07T02:56:04;11.93;;;8.63;;
77507;SDS011;66618;42.666;23.360;2023-05-07T02:58:31;10.88;;;6.38;;
77507;SDS011;66618;42.666;23.360;2023-05-07T03:00:56;9.98;;;6.13;;
77507;SDS011;66618;42.666;23.360;2023-05-07T03:03:22;8.32;;;6.03;;
77507;SDS011;66618;42.666;23.360;2023-05-07T03:05:47;11.05;;;7.13;;
77507;SDS011;66618;42.666;23.360;2023-05-07T03:08:13;10.90;;;8.52;;
77507;SDS011;66618;42.666;23.360;2023-05-07T03:10:38;12.55;;;8.00;;
77507;SDS011;66618;42.666;23.360;2023-05-07T03:13:04;11.27;;;7.78;;
77507;SDS011;66618;42.666;23.360;2023-05-07T03:15:29;12.07;;;7.88;;
77507;SDS011;66618;42.666;23.360;2023-05-07T03:17:55;11.93;;;8.07;;
77507;SDS011;66618;42.666;23.360;2023-05-07T03:20:20;14.88;;;8.27;;
77507;SDS011;66618;42.666;23.360;2023-05-07T03:22:46;11.95;;;8.15;;
77507;SDS011;66618;42.666;23.360;2023-05-07T03:25:12;13.75;;;8.85;;
77507;SDS011;66618;42.666;23.360;2023-05-07T03:27:37;11.48;;;7.78;;
77507;SDS011;66618;42.666;23.360;2023-05-07T03:30:03;13.05;;;8.50;;
77507;SDS011;66618;42.666;23.360;2023-05-07T03:32:29;11.45;;;7.95;;
77507;SDS011;66618;42.666;23.360;2023-05-07T03:34:54;11.13;;;7.95;;
77507;SDS011;66618;42.666;23.360;2023-05-07T03:37:20;11.77;;;8.15;;
77507;SDS011;66618;42.666;23.360;2023-05-07T03:39:46;13.57;;;8.50;;
77507;SDS011;66618;42.666;23.360;2023-05-07T03:42:12;12.05;;;8.43;;
77507;SDS011;66618;42.666;23.360;2023-05-07T03:44:37;12.65;;;8.38;;
77507;SDS011;66618;42.666;23.360;2023-05-07T03:47:03;13.35;;;8.05;;
77507;SDS011;66618;42.666;23.360;2023-05-07T03:49:29;14.75;;;9.75;;
77507;SDS011;66618;42.666;23.360;2023-05-07T03:51:54;14.63;;;9.43;;
77507;SDS011;66618;42.666;23.360;2023-05-07T03:54:20;16.88;;;9.43;;
77507;SDS011;66618;42.666;23.360;2023-05-07T03:56:46;13.23;;;9.13;;
77507;SDS011;66618;42.666;23.360;2023-05-07T03:59:12;12.40;;;8.73;;
77507;SDS011;66618;42.666;23.360;2023-05-07T04:01:38;14.60;;;8.77;;
77507;SDS011;66618;42.666;23.360;2023-05-07T04:04:03;11.77;;;8.25;;
77507;SDS011;66618;42.666;23.360;2023-05-07T04:06:29;15.63;;;9.30;;
77507;SDS011;66618;42.666;23.360;2023-05-07T04:08:54;13.15;;;8.60;;
77507;SDS011;66618;42.666;23.360;2023-05-07T04:11:20;16.65;;;9.82;;
77507;SDS011;66618;42.666;23.360;2023-05-07T04:13:45;14.85;;;9.48;;
77507;SDS011;66618;42.666;23.360;2023-05-07T04:16:10;17.27;;;9.35;;
77507;SDS011;66618;42.666;23.360;2023-05-07T04:18:36;12.68;;;8.25;;
77507;SDS011;66618;42.666;23.360;2023-05-07T04:21:01;13.75;;;8.57;;
77507;SDS011;66618;42.666;23.360;2023-05-07T04:23:27;12.93;;;8.32;;
77507;SDS011;66618;42.666;23.360;2023-05-07T04:25:52;14.50;;;8.23;;
77507;SDS011;66618;42.666;23.360;2023-05-07T04:28:19;11.45;;;7.50;;
77507;SDS011;66618;42.666;23.360;2023-05-07T04:30:45;11.50;;;7.53;;
77507;SDS011;66618;42.666;23.360;2023-05-07T04:33:10;9.73;;;6.60;;
77507;SDS011;66618;42.666;23.360;2023-05-07T04:35:36;8.18;;;6.88;;
77507;SDS011;66618;42.666;23.360;2023-05-07T04:38:02;8.60;;;6.60;;
77507;SDS011;66618;42.666;23.360;2023-05-07T04:40:27;9.60;;;6.60;;
77507;SDS011;66618;42.666;23.360;2023-05-07T04:42:52;9.30;;;6.65;;
77507;SDS011;66618;42.666;23.360;2023-05-07T04:45:18;8.73;;;6.47;;
77507;SDS011;66618;42.666;23.360;2023-05-07T04:47:44;11.65;;;7.05;;
77507;SDS011;66618;42.666;23.360;2023-05-07T04:50:09;8.60;;;6.63;;
77507;SDS011;66618;42.666;23.360;2023-05-07T04:52:35;8.93;;;6.75;;
77507;SDS011;66618;42.666;23.360;2023-05-07T04:55:01;7.90;;;6.45;;
77507;SDS011;66618;42.666;23.360;2023-05-07T04:57:27;12.02;;;6.47;;
77507;SDS011;66618;42.666;23.360;2023-05-07T04:59:52;8.13;;;6.43;;
77507;SDS011;66618;42.666;23.360;2023-05-07T05:02:18;6.90;;;6.15;;
77507;SDS011;66618;42.666;23.360;2023-05-07T05:04:51;9.88;;;6.82;;
77507;SDS011;66618;42.666;23.360;2023-05-07T05:07:16;8.25;;;6.65;;
77507;SDS011;66618;42.666;23.360;2023-05-07T05:09:42;8.55;;;6.97;;
77507;SDS011;66618;42.666;23.360;2023-05-07T05:12:07;9.45;;;7.10;;
77507;SDS011;66618;42.666;23.360;2023-05-07T05:14:32;10.32;;;7.10;;
77507;SDS011;66618;42.666;23.360;2023-05-07T05:16:58;9.45;;;7.20;;
77507;SDS011;66618;42.666;23.360;2023-05-07T05:19:23;11.20;;;7.22;;
77507;SDS011;66618;42.666;23.360;2023-05-07T05:21:48;9.95;;;7.63;;
77507;SDS011;66618;42.666;23.360;2023-05-07T05:24:14;9.55;;;7.00;;
77507;SDS011;66618;42.666;23.360;2023-05-07T05:26:40;10.18;;;7.40;;
77507;SDS011;66618;42.666;23.360;2023-05-07T05:29:05;9.82;;;6.88;;
77507;SDS011;66618;42.666;23.360;2023-05-07T05:31:31;10.32;;;7.10;;
77507;SDS011;66618;42.666;23.360;2023-05-07T05:33:56;9.45;;;8.00;;
77507;SDS011;66618;42.666;23.360;2023-05-07T05:36:22;9.93;;;8.35;;
77507;SDS011;66618;42.666;23.360;2023-05-07T05:38:47;10.57;;;7.45;;
77507;SDS011;66618;42.666;23.360;2023-05-07T05:41:13;8.80;;;7.00;;
77507;SDS011;66618;42.666;23.360;2023-05-07T05:43:38;8.43;;;7.13;;
77507;SDS011;66618;42.666;23.360;2023-05-07T05:46:03;9.45;;;7.07;;
77507;SDS011;66618;42.666;23.360;2023-05-07T05:48:33;7.95;;;6.85;;
77507;SDS011;66618;42.666;23.360;2023-05-07T05:50:59;10.32;;;7.55;;
77507;SDS011;66618;42.666;23.360;2023-05-07T05:53:25;10.13;;;7.60;;
77507;SDS011;66618;42.666;23.360;2023-05-07T05:55:50;10.55;;;7.55;;
77507;SDS011;66618;42.666;23.360;2023-05-07T05:58:16;8.73;;;7.10;;
77507;SDS011;66618;42.666;23.360;2023-05-07T06:00:41;10.45;;;7.38;;
77507;SDS011;66618;42.666;23.360;2023-05-07T06:03:07;10.52;;;7.88;;
77507;SDS011;66618;42.666;23.360;2023-05-07T06:05:32;9.25;;;7.30;;
77507;SDS011;66618;42.666;23.360;2023-05-07T06:07:58;9.25;;;7.03;;
77507;SDS011;66618;42.666;23.360;2023-05-07T06:10:23;9.10;;;7.18;;
77507;SDS011;66618;42.666;23.360;2023-05-07T06:12:49;10.00;;;6.97;;
77507;SDS011;66618;42.666;23.360;2023-05-07T06:15:14;8.88;;;7.13;;
77507;SDS011;66618;42.666;23.360;2023-05-07T06:17:40;10.45;;;7.15;;
77507;SDS011;66618;42.666;23.360;2023-05-07T06:20:05;8.50;;;6.68;;
77507;SDS011;66618;42.666;23.360;2023-05-07T06:22:31;9.45;;;7.40;;
77507;SDS011;66618;42.666;23.360;2023-05-07T06:24:57;8.68;;;6.75;;
77507;SDS011;66618;42.666;23.360;2023-05-07T06:27:22;9.25;;;6.78;;
77507;SDS011;66618;42.666;23.360;2023-05-07T06:29:48;8.95;;;6.80;;
77507;SDS011;66618;42.666;23.360;2023-05-07T06:32:13;10.75;;;6.68;;
77507;SDS011;66618;42.666;23.360;2023-05-07T06:34:39;10.68;;;7.70;;
77507;SDS011;66618;42.666;23.360;2023-05-07T06:37:05;8.77;;;7.13;;
77507;SDS011;66618;42.666;23.360;2023-05-07T06:39:31;10.73;;;7.13;;
77507;SDS011;66618;42.666;23.360;2023-05-07T06:41:57;10.75;;;7.38;;
77507;SDS011;66618;42.666;23.360;2023-05-07T06:44:22;11.80;;;7.03;;
77507;SDS011;66618;42.666;23.360;2023-05-07T06:46:48;9.00;;;7.18;;
77507;SDS011;66618;42.666;23.360;2023-05-07T06:49:13;10.07;;;6.55;;
77507;SDS011;66618;42.666;23.360;2023-05-07T06:51:39;8.60;;;6.68;;
77507;SDS011;66618;42.666;23.360;2023-05-07T06:54:04;9.93;;;7.50;;
77507;SDS011;66618;42.666;23.360;2023-05-07T06:56:30;10.15;;;6.70;;
77507;SDS011;66618;42.666;23.360;2023-05-07T06:58:56;12.52;;;7.10;;
77507;SDS011;66618;42.666;23.360;2023-05-07T07:01:21;7.70;;;6.60;;
77507;SDS011;66618;42.666;23.360;2023-05-07T07:03:46;10.38;;;6.93;;
77507;SDS011;66618;42.666;23.360;2023-05-07T07:06:12;10.48;;;6.93;;
77507;SDS011;66618;42.666;23.360;2023-05-07T07:08:37;9.30;;;6.38;;
77507;SDS011;66618;42.666;23.360;2023-05-07T07:11:04;9.52;;;6.72;;
77507;SDS011;66618;42.666;23.360;2023-05-07T07:13:29;13.25;;;7.10;;
77507;SDS011;66618;42.666;23.360;2023-05-07T07:15:55;10.70;;;7.38;;
77507;SDS011;66618;42.666;23.360;2023-05-07T07:18:20;8.80;;;6.68;;
77507;SDS011;66618;42.666;23.360;2023-05-07T07:20:46;10.00;;;6.68;;
77507;SDS011;66618;42.666;23.360;2023-05-07T07:23:11;11.30;;;7.18;;
77507;SDS011;66618;42.666;23.360;2023-05-07T07:25:36;9.68;;;6.72;;
77507;SDS011;66618;42.666;23.360;2023-05-07T07:28:02;8.95;;;6.65;;
77507;SDS011;66618;42.666;23.360;2023-05-07T07:30:27;8.57;;;6.72;;
77507;SDS011;66618;42.666;23.360;2023-05-07T07:32:53;9.07;;;6.28;;
77507;SDS011;66618;42.666;23.360;2023-05-07T07:35:19;9.00;;;6.75;;
77507;SDS011;66618;42.666;23.360;2023-05-07T07:37:44;7.50;;;5.95;;
77507;SDS011;66618;42.666;23.360;2023-05-07T07:40:09;10.13;;;7.30;;
77507;SDS011;66618;42.666;23.360;2023-05-07T07:42:36;10.32;;;6.32;;
77507;SDS011;66618;42.666;23.360;2023-05-07T07:45:02;10.15;;;7.47;;
77507;SDS011;66618;42.666;23.360;2023-05-07T07:47:28;10.43;;;7.68;;
77507;SDS011;66618;42.666;23.360;2023-05-07T07:49:53;11.30;;;7.68;;
77507;SDS011;66618;42.666;23.360;2023-05-07T07:52:18;11.18;;;7.13;;
77507;SDS011;66618;42.666;23.360;2023-05-07T07:54:44;10.77;;;7.55;;
77507;SDS011;66618;42.666;23.360;2023-05-07T07:57:09;9.65;;;7.55;;
77507;SDS011;66618;42.666;23.360;2023-05-07T07:59:35;11.48;;;8.10;;
77507;SDS011;66618;42.666;23.360;2023-05-07T08:02:00;10.02;;;7.78;;
77507;SDS011;66618;42.666;23.360;2023-05-07T08:04:26;11.85;;;8.63;;
77507;SDS011;66618;42.666;23.360;2023-05-07T08:06:51;14.65;;;8.05;;
77507;SDS011;66618;42.666;23.360;2023-05-07T08:09:17;9.60;;;7.72;;
77507;SDS011;66618;42.666;23.360;2023-05-07T08:11:42;9.88;;;7.38;;
77507;SDS011;66618;42.666;23.360;2023-05-07T08:14:07;9.98;;;7.47;;
77507;SDS011;66618;42.666;23.360;2023-05-07T08:16:33;12.20;;;8.23;;
77507;SDS011;66618;42.666;23.360;2023-05-07T08:18:58;10.75;;;8.07;;
77507;SDS011;66618;42.666;23.360;2023-05-07T08:21:23;10.05;;;7.72;;
77507;SDS011;66618;42.666;23.360;2023-05-07T08:23:49;10.55;;;7.63;;
77507;SDS011;66618;42.666;23.360;2023-05-07T08:26:14;12.52;;;7.93;;
77507;SDS011;66618;42.666;23.360;2023-05-07T08:28:40;11.68;;;8.35;;
77507;SDS011;66618;42.666;23.360;2023-05-07T08:31:05;12.23;;;8.93;;
77507;SDS011;66618;42.666;23.360;2023-05-07T08:33:30;11.32;;;7.85;;
77507;SDS011;66618;42.666;23.360;2023-05-07T08:35:56;10.15;;;7.00;;
77507;SDS011;66618;42.666;23.360;2023-05-07T08:38:21;7.80;;;6.47;;
77507;SDS011;66618;42.666;23.360;2023-05-07T08:40:47;10.95;;;7.50;;
77507;SDS011;66618;42.666;23.360;2023-05-07T08:43:12;11.75;;;8.40;;
77507;SDS011;66618;42.666;23.360;2023-05-07T08:45:39;9.73;;;7.43;;
77507;SDS011;66618;42.666;23.360;2023-05-07T08:48:08;9.18;;;6.72;;
77507;SDS011;66618;42.666;23.360;2023-05-07T08:50:35;9.38;;;7.00;;
77507;SDS011;66618;42.666;23.360;2023-05-07T08:53:02;9.35;;;6.72;;
77507;SDS011;66618;42.666;23.360;2023-05-07T08:55:28;9.35;;;6.55;;
77507;SDS011;66618;42.666;23.360;2023-05-07T08:57:54;9.88;;;6.93;;
77507;SDS011;66618;42.666;23.360;2023-05-07T09:00:19;8.43;;;6.80;;
77507;SDS011;66618;42.666;23.360;2023-05-07T09:02:45;7.78;;;5.28;;
77507;SDS011;66618;42.666;23.360;2023-05-07T09:05:10;7.47;;;5.30;;
77507;SDS011;66618;42.666;23.360;2023-05-07T09:07:36;7.38;;;5.15;;
77507;SDS011;66618;42.666;23.360;2023-05-07T09:10:04;9.05;;;5.75;;
77507;SDS011;66618;42.666;23.360;2023-05-07T09:12:30;8.18;;;5.97;;
77507;SDS011;66618;42.666;23.360;2023-05-07T09:14:55;6.68;;;5.32;;
77507;SDS011;66618;42.666;23.360;2023-05-07T09:17:21;7.93;;;5.43;;
77507;SDS011;66618;42.666;23.360;2023-05-07T09:19:46;6.53;;;5.57;;
77507;SDS011;66618;42.666;23.360;2023-05-07T09:22:12;7.53;;;5.70;;
77507;SDS011;66618;42.666;23.360;2023-05-07T09:24:37;6.10;;;5.05;;
77507;SDS011;66618;42.666;23.360;2023-05-07T09:27:03;7.90;;;5.90;;
77507;SDS011;66618;42.666;23.360;2023-05-07T09:29:29;8.15;;;4.88;;
77507;SDS011;66618;42.666;23.360;2023-05-07T09:32:00;7.70;;;5.47;;
77507;SDS011;66618;42.666;23.360;2023-05-07T09:34:26;6.78;;;5.40;;
77507;SDS011;66618;42.666;23.360;2023-05-07T09:36:51;7.18;;;5.38;;
77507;SDS011;66618;42.666;23.360;2023-05-07T09:39:16;6.00;;;4.43;;
77507;SDS011;66618;42.666;23.360;2023-05-07T09:41:45;8.48;;;4.57;;
77507;SDS011;66618;42.666;23.360;2023-05-07T09:44:12;4.93;;;4.43;;
77507;SDS011;66618;42.666;23.360;2023-05-07T09:46:39;5.53;;;4.22;;
77507;SDS011;66618;42.666;23.360;2023-05-07T09:51:45;5.35;;;4.40;;
77507;SDS011;66618;42.666;23.360;2023-05-07T09:54:14;5.70;;;4.25;;
77507;SDS011;66618;42.666;23.360;2023-05-07T09:56:39;5.40;;;4.20;;
77507;SDS011;66618;42.666;23.360;2023-05-07T09:59:06;4.97;;;4.47;;
77507;SDS011;66618;42.666;23.360;2023-05-07T10:01:32;6.50;;;3.97;;
77507;SDS011;66618;42.666;23.360;2023-05-07T10:03:58;7.50;;;3.63;;
77507;SDS011;66618;42.666;23.360;2023-05-07T10:06:24;5.32;;;3.70;;
77507;SDS011;66618;42.666;23.360;2023-05-07T10:08:52;5.65;;;4.00;;
77507;SDS011;66618;42.666;23.360;2023-05-07T10:11:19;4.78;;;3.70;;
77507;SDS011;66618;42.666;23.360;2023-05-07T10:13:45;4.40;;;3.40;;
77507;SDS011;66618;42.666;23.360;2023-05-07T10:16:11;4.97;;;3.72;;
77507;SDS011;66618;42.666;23.360;2023-05-07T10:18:37;4.00;;;3.60;;
77507;SDS011;66618;42.666;23.360;2023-05-07T10:21:07;7.78;;;4.35;;
77507;SDS011;66618;42.666;23.360;2023-05-07T10:23:33;4.75;;;3.80;;
77507;SDS011;66618;42.666;23.360;2023-05-07T10:25:59;5.35;;;3.75;;
77507;SDS011;66618;42.666;23.360;2023-05-07T10:28:27;5.13;;;4.00;;
77507;SDS011;66618;42.666;23.360;2023-05-07T10:33:27;5.18;;;3.47;;
77507;SDS011;66618;42.666;23.360;2023-05-07T10:35:55;5.35;;;3.67;;
77507;SDS011;66618;42.666;23.360;2023-05-07T10:38:23;5.20;;;4.07;;
77507;SDS011;66618;42.666;23.360;2023-05-07T10:40:50;5.32;;;3.88;;
77507;SDS011;66618;42.666;23.360;2023-05-07T10:43:16;4.63;;;3.70;;
77507;SDS011;66618;42.666;23.360;2023-05-07T10:45:41;5.50;;;3.65;;
77507;SDS011;66618;42.666;23.360;2023-05-07T10:48:07;3.75;;;3.38;;
77507;SDS011;66618;42.666;23.360;2023-05-07T10:50:37;7.00;;;4.05;;
77507;SDS011;66618;42.666;23.360;2023-05-07T10:55:47;6.28;;;3.70;;
77507;SDS011;66618;42.666;23.360;2023-05-07T11:00:58;4.22;;;3.60;;
77507;SDS011;66618;42.666;23.360;2023-05-07T11:03:25;4.82;;;3.70;;
77507;SDS011;66618;42.666;23.360;2023-05-07T11:06:33;3.88;;;3.58;;
77507;SDS011;66618;42.666;23.360;2023-05-07T11:17:16;3.55;;;3.25;;
77507;SDS011;66618;42.666;23.360;2023-05-07T11:19:48;3.70;;;3.40;;
77507;SDS011;66618;42.666;23.360;2023-05-07T11:24:55;4.57;;;3.75;;
77507;SDS011;66618;42.666;23.360;2023-05-07T11:27:24;5.95;;;3.83;;
77507;SDS011;66618;42.666;23.360;2023-05-07T11:29:50;5.07;;;4.22;;
77507;SDS011;66618;42.666;23.360;2023-05-07T11:32:21;5.25;;;4.00;;
77507;SDS011;66618;42.666;23.360;2023-05-07T11:34:47;4.25;;;3.85;;
77507;SDS011;66618;42.666;23.360;2023-05-07T11:37:17;5.60;;;3.90;;
77507;SDS011;66618;42.666;23.360;2023-05-07T11:39:42;4.65;;;3.67;;
77507;SDS011;66618;42.666;23.360;2023-05-07T11:42:24;4.13;;;3.40;;
77507;SDS011;66618;42.666;23.360;2023-05-07T11:44:53;3.88;;;3.58;;
77507;SDS011;66618;42.666;23.360;2023-05-07T11:47:19;4.00;;;3.63;;
77507;SDS011;66618;42.666;23.360;2023-05-07T11:49:48;4.50;;;4.07;;
77507;SDS011;66618;42.666;23.360;2023-05-07T11:52:14;5.95;;;4.20;;
77507;SDS011;66618;42.666;23.360;2023-05-07T11:54:40;6.18;;;3.92;;
77507;SDS011;66618;42.666;23.360;2023-05-07T11:57:05;4.90;;;3.80;;
77507;SDS011;66618;42.666;23.360;2023-05-07T11:59:38;4.00;;;3.60;;
77507;SDS011;66618;42.666;23.360;2023-05-07T12:02:09;4.78;;;4.07;;
77507;SDS011;66618;42.666;23.360;2023-05-07T12:04:34;6.32;;;4.07;;
77507;SDS011;66618;42.666;23.360;2023-05-07T12:07:00;4.22;;;3.83;;
77507;SDS011;66618;42.666;23.360;2023-05-07T12:09:26;4.57;;;4.00;;
77507;SDS011;66618;42.666;23.360;2023-05-07T12:11:51;4.28;;;3.80;;
77507;SDS011;66618;42.666;23.360;2023-05-07T12:14:17;4.80;;;4.30;;
77507;SDS011;66618;42.666;23.360;2023-05-07T12:16:43;4.72;;;3.90;;
77507;SDS011;66618;42.666;23.360;2023-05-07T12:19:10;7.43;;;4.45;;
77507;SDS011;66618;42.666;23.360;2023-05-07T12:21:37;5.05;;;4.18;;
77507;SDS011;66618;42.666;23.360;2023-05-07T12:24:03;4.35;;;3.95;;
77507;SDS011;66618;42.666;23.360;2023-05-07T12:26:29;4.55;;;4.07;;
77507;SDS011;66618;42.666;23.360;2023-05-07T12:28:55;5.07;;;3.70;;
77507;SDS011;66618;42.666;23.360;2023-05-07T12:31:22;4.40;;;3.80;;
77507;SDS011;66618;42.666;23.360;2023-05-07T12:33:47;4.70;;;3.78;;
77507;SDS011;66618;42.666;23.360;2023-05-07T12:36:13;6.40;;;3.90;;
77507;SDS011;66618;42.666;23.360;2023-05-07T12:38:39;4.40;;;4.00;;
77507;SDS011;66618;42.666;23.360;2023-05-07T12:41:06;4.88;;;4.00;;
77507;SDS011;66618;42.666;23.360;2023-05-07T12:43:32;4.03;;;3.65;;
77507;SDS011;66618;42.666;23.360;2023-05-07T12:46:02;4.22;;;3.30;;
77507;SDS011;66618;42.666;23.360;2023-05-07T12:48:29;4.28;;;3.00;;
77507;SDS011;66618;42.666;23.360;2023-05-07T12:50:55;3.05;;;2.85;;
77507;SDS011;66618;42.666;23.360;2023-05-07T12:53:22;3.17;;;2.67;;
77507;SDS011;66618;42.666;23.360;2023-05-07T12:55:50;2.90;;;2.60;;
77507;SDS011;66618;42.666;23.360;2023-05-07T12:58:18;4.03;;;2.45;;
77507;SDS011;66618;42.666;23.360;2023-05-07T13:00:49;4.03;;;2.72;;
77507;SDS011;66618;42.666;23.360;2023-05-07T13:05:51;3.92;;;3.00;;
77507;SDS011;66618;42.666;23.360;2023-05-07T13:08:50;3.53;;;2.97;;
77507;SDS011;66618;42.666;23.360;2023-05-07T13:11:09;3.25;;;2.95;;
77507;SDS011;66618;42.666;23.360;2023-05-07T13:13:35;2.53;;;2.33;;
77507;SDS011;66618;42.666;23.360;2023-05-07T13:16:02;3.60;;;2.80;;
77507;SDS011;66618;42.666;23.360;2023-05-07T13:18:32;3.10;;;2.80;;
77507;SDS011;66618;42.666;23.360;2023-05-07T13:20:58;3.13;;;2.50;;
77507;SDS011;66618;42.666;23.360;2023-05-07T13:23:25;3.10;;;2.50;;
77507;SDS011;66618;42.666;23.360;2023-05-07T13:25:50;3.70;;;2.50;;
77507;SDS011;66618;42.666;23.360;2023-05-07T13:28:18;3.10;;;2.80;;
77507;SDS011;66618;42.666;23.360;2023-05-07T13:30:45;5.00;;;2.70;;
77507;SDS011;66618;42.666;23.360;2023-05-07T13:33:10;2.95;;;2.72;;
77507;SDS011;66618;42.666;23.360;2023-05-07T13:35:36;3.97;;;2.40;;
77507;SDS011;66618;42.666;23.360;2023-05-07T13:38:01;3.00;;;2.70;;
77507;SDS011;66618;42.666;23.360;2023-05-07T13:40:27;2.60;;;2.38;;
77507;SDS011;66618;42.666;23.360;2023-05-07T13:42:53;4.55;;;3.05;;
77507;SDS011;66618;42.666;23.360;2023-05-07T13:45:18;3.75;;;2.83;;
77507;SDS011;66618;42.666;23.360;2023-05-07T13:47:44;3.10;;;2.60;;
77507;SDS011;66618;42.666;23.360;2023-05-07T13:50:10;3.70;;;2.90;;
77507;SDS011;66618;42.666;23.360;2023-05-07T13:52:40;3.00;;;2.70;;
77507;SDS011;66618;42.666;23.360;2023-05-07T13:55:08;2.60;;;2.40;;
77507;SDS011;66618;42.666;23.360;2023-05-07T13:57:33;3.40;;;2.90;;
77507;SDS011;66618;42.666;23.360;2023-05-07T13:59:59;3.75;;;2.83;;
77507;SDS011;66618;42.666;23.360;2023-05-07T14:02:24;2.60;;;2.40;;
77507;SDS011;66618;42.666;23.360;2023-05-07T14:04:50;3.20;;;2.25;;
77507;SDS011;66618;42.666;23.360;2023-05-07T14:07:15;3.70;;;2.50;;
77507;SDS011;66618;42.666;23.360;2023-05-07T14:09:40;2.92;;;2.72;;
77507;SDS011;66618;42.666;23.360;2023-05-07T14:12:06;4.13;;;2.67;;
77507;SDS011;66618;42.666;23.360;2023-05-07T14:14:31;2.78;;;2.58;;
77507;SDS011;66618;42.666;23.360;2023-05-07T14:16:57;2.95;;;2.65;;
77507;SDS011;66618;42.666;23.360;2023-05-07T14:19:22;2.50;;;2.30;;
77507;SDS011;66618;42.666;23.360;2023-05-07T14:21:48;2.75;;;2.35;;
77507;SDS011;66618;42.666;23.360;2023-05-07T14:24:13;2.83;;;2.45;;
77507;SDS011;66618;42.666;23.360;2023-05-07T14:26:39;3.97;;;2.92;;
77507;SDS011;66618;42.666;23.360;2023-05-07T14:29:04;4.18;;;2.60;;
77507;SDS011;66618;42.666;23.360;2023-05-07T14:31:30;4.82;;;2.80;;
77507;SDS011;66618;42.666;23.360;2023-05-07T14:33:55;3.42;;;2.70;;
77507;SDS011;66618;42.666;23.360;2023-05-07T14:36:22;3.80;;;2.70;;
77507;SDS011;66618;42.666;23.360;2023-05-07T14:38:51;3.25;;;2.60;;
77507;SDS011;66618;42.666;23.360;2023-05-07T14:41:16;3.47;;;2.70;;
77507;SDS011;66618;42.666;23.360;2023-05-07T14:43:42;3.08;;;2.80;;
77507;SDS011;66618;42.666;23.360;2023-05-07T14:46:07;2.88;;;2.50;;